createdAt,value
2022-11-25T00:01:09.293Z,52353.85
2022-11-25T00:03:40.926Z,52383.59
2022-11-25T00:06:11.658Z,52364.30
2022-11-25T00:08:43.299Z,52357.47
2022-11-25T00:11:14.837Z,52348.63
2022-11-25T00:13:46.959Z,52356.66
2022-11-25T00:16:19.529Z,52347.02
2022-11-25T00:18:51.825Z,52344.61
2022-11-25T00:21:24.786Z,52353.85
2022-11-25T00:23:56.641Z,52351.44
2022-11-25T00:26:28.421Z,52350.23
2022-11-25T00:28:58.929Z,52357.47
2022-11-25T00:31:31.222Z,52356.26
2022-11-25T00:34:02.734Z,52353.85
2022-11-25T00:36:35.001Z,52352.24
2022-11-25T00:39:08.211Z,52347.42
2022-11-25T00:41:57.510Z,52360.28
2022-11-25T00:44:39.764Z,52356.66
2022-11-25T00:47:12.934Z,52354.66
2022-11-25T00:49:47.883Z,52349.03
2022-11-25T00:52:20.191Z,52359.88
2022-11-25T00:54:52.545Z,52353.85
2022-11-25T00:57:24.703Z,52372.34
2022-11-25T00:59:56.578Z,52351.44
2022-11-25T01:02:28.972Z,52356.66
2022-11-25T01:05:00.405Z,52364.30
2022-11-25T01:07:31.886Z,52369.12
2022-11-25T01:10:01.953Z,52357.06
2022-11-25T01:12:33.411Z,52373.54
2022-11-25T01:15:04.959Z,52378.77
2022-11-25T01:17:39.375Z,52369.93
2022-11-25T01:20:12.947Z,52369.93
2022-11-25T01:22:44.457Z,52378.77
2022-11-25T01:25:15.966Z,52376.76
2022-11-25T01:27:48.563Z,52380.78
2022-11-25T01:30:20.289Z,52373.14
2022-11-25T01:32:49.931Z,52367.92
2022-11-25T01:35:21.410Z,52381.58
2022-11-25T01:37:52.807Z,52373.95
2022-11-25T01:40:24.278Z,52365.51
2022-11-25T01:42:55.704Z,52378.77
2022-11-25T01:45:41.016Z,52391.63
2022-11-25T01:48:16.294Z,52360.28
2022-11-25T01:50:47.889Z,52373.95
2022-11-25T01:53:19.477Z,52374.75
2022-11-25T01:55:52.618Z,52388.41
2022-11-25T01:58:26.040Z,52379.57
2022-11-25T02:00:58.825Z,52370.73
2022-11-25T02:03:29.468Z,52380.38
2022-11-25T02:06:04.227Z,52364.30
2022-11-25T02:08:36.043Z,52373.95
2022-11-25T02:11:08.200Z,52385.60
2022-11-25T02:13:37.951Z,52402.48
2022-11-25T02:16:10.678Z,52370.33
2022-11-25T02:18:40.510Z,52368.72
2022-11-25T02:21:12.014Z,52368.72
2022-11-25T02:23:46.978Z,52356.26
2022-11-25T02:26:18.533Z,52388.01
2022-11-25T02:28:50.208Z,52373.14
2022-11-25T02:31:23.805Z,52369.93
2022-11-25T02:33:55.546Z,52379.98
2022-11-25T02:36:27.010Z,52391.63
2022-11-25T02:39:00.937Z,52393.23
2022-11-25T02:41:36.216Z,52376.76
2022-11-25T02:44:09.337Z,52388.41
2022-11-25T02:46:38.967Z,52386.40
2022-11-25T02:49:10.727Z,52375.15
2022-11-25T02:51:44.134Z,52384.39
2022-11-25T02:54:16.467Z,52383.59
2022-11-25T02:56:48.054Z,52392.84
2022-11-25T02:59:19.485Z,52389.21
2022-11-25T03:01:50.143Z,52380.77
2022-11-25T03:04:21.548Z,52376.76
2022-11-25T03:06:53.084Z,52378.77
2022-11-25T03:09:24.413Z,52383.59
2022-11-25T03:12:12.518Z,52382.38
2022-11-25T03:14:44.000Z,52378.36
2022-11-25T03:17:16.363Z,52379.17
2022-11-25T03:19:47.804Z,52386.40
2022-11-25T03:22:19.227Z,52393.24
2022-11-25T03:24:50.583Z,52393.23
2022-11-25T03:27:22.027Z,52392.84
2022-11-25T03:29:52.309Z,52391.23
2022-11-25T03:32:23.757Z,52395.64
2022-11-25T03:34:55.299Z,52395.65
2022-11-25T03:37:25.546Z,52373.54
2022-11-25T03:39:57.151Z,52408.51
2022-11-25T03:42:27.131Z,52386.40
2022-11-25T03:44:59.473Z,52397.66
2022-11-25T03:47:29.480Z,52394.44
2022-11-25T03:50:00.788Z,52389.21
2022-11-25T03:52:30.988Z,52393.63
2022-11-25T03:55:02.621Z,52409.71
2022-11-25T03:57:36.788Z,52381.98
2022-11-25T04:00:10.913Z,52387.20
2022-11-25T04:03:18.118Z,52405.29
2022-11-25T04:05:47.752Z,52388.81
2022-11-25T04:08:19.595Z,52396.45
2022-11-25T04:10:51.890Z,52383.99
2022-11-25T04:13:26.681Z,52388.82
2022-11-25T04:15:58.337Z,52395.64
2022-11-25T04:18:30.215Z,52386.00
2022-11-25T04:21:03.065Z,52396.05
2022-11-25T04:23:35.766Z,52390.82
2022-11-25T04:26:08.413Z,52403.28
2022-11-25T04:28:42.091Z,52410.12
2022-11-25T04:31:13.580Z,52392.03
2022-11-25T04:33:52.230Z,52401.27
2022-11-25T04:36:24.453Z,52392.43
2022-11-25T04:38:56.525Z,52391.23
2022-11-25T04:41:26.992Z,52379.97
2022-11-25T04:43:59.056Z,52378.37
2022-11-25T04:46:33.011Z,52396.85
2022-11-25T04:49:04.779Z,52391.63
2022-11-25T04:51:36.991Z,52394.84
2022-11-25T04:54:13.335Z,52416.54
2022-11-25T04:56:47.947Z,52379.97
2022-11-25T04:59:37.299Z,52415.74
2022-11-25T05:02:08.978Z,52402.48
2022-11-25T05:04:43.083Z,52398.05
2022-11-25T05:07:15.189Z,52405.29
2022-11-25T05:09:47.228Z,52392.43
2022-11-25T05:12:23.191Z,52408.51
2022-11-25T05:14:55.304Z,52393.64
2022-11-25T05:17:27.938Z,52400.47
2022-11-25T05:19:59.955Z,52379.97
2022-11-25T05:22:33.139Z,52402.48
2022-11-25T05:25:07.227Z,52394.84
2022-11-25T05:27:43.232Z,52389.22
2022-11-25T05:30:16.186Z,52390.43
2022-11-25T05:32:47.747Z,52398.86
2022-11-25T05:35:22.226Z,52410.91
2022-11-25T05:37:54.054Z,52408.91
2022-11-25T05:40:25.932Z,52386.40
2022-11-25T05:43:08.398Z,52400.87
2022-11-25T05:45:42.818Z,52399.26
2022-11-25T05:48:15.072Z,52396.05
2022-11-25T05:50:47.285Z,52386.00
2022-11-25T05:53:27.082Z,52409.71
2022-11-25T05:55:59.968Z,52390.82
2022-11-25T05:58:49.855Z,52389.62
2022-11-25T06:01:22.328Z,52394.04
2022-11-25T06:03:55.291Z,52390.02
2022-11-25T06:06:27.325Z,52394.44
2022-11-25T06:08:58.767Z,52391.23
2022-11-25T06:11:30.112Z,52400.87
2022-11-25T06:14:01.546Z,52396.45
2022-11-25T06:16:31.663Z,52404.49
2022-11-25T06:19:20.133Z,52396.45
2022-11-25T06:21:51.818Z,52396.85
2022-11-25T06:24:21.676Z,52391.23
2022-11-25T06:26:56.912Z,52394.84
2022-11-25T06:29:29.152Z,52377.16
2022-11-25T06:32:00.582Z,52375.95
2022-11-25T06:34:52.791Z,52383.99
2022-11-25T06:37:38.883Z,52392.83
2022-11-25T06:40:12.135Z,52377.16
2022-11-25T06:42:44.196Z,52391.63
2022-11-25T06:45:16.202Z,52381.58
2022-11-25T06:47:48.052Z,52389.22
2022-11-25T06:50:20.139Z,52391.22
2022-11-25T06:52:49.958Z,52387.21
2022-11-25T06:55:22.042Z,52389.62
2022-11-25T06:57:59.059Z,52372.74
2022-11-25T07:00:39.911Z,52369.93
2022-11-25T07:03:11.312Z,52375.55
2022-11-25T07:05:42.932Z,52368.32
2022-11-25T07:08:14.755Z,52379.17
2022-11-25T07:10:47.110Z,52374.34
2022-11-25T07:13:19.471Z,52369.93
2022-11-25T07:15:52.149Z,52362.69
2022-11-25T07:18:24.440Z,52368.32
2022-11-25T07:20:56.872Z,52366.71
2022-11-25T07:23:28.690Z,52364.30
2022-11-25T07:26:04.968Z,52372.74
2022-11-25T07:28:37.181Z,52359.07
2022-11-25T07:34:06.458Z,52357.06
2022-11-25T07:36:39.938Z,52367.51
2022-11-25T07:39:13.246Z,52366.30
2022-11-25T07:41:45.727Z,52353.85
2022-11-25T07:44:18.933Z,52346.62
2022-11-25T07:47:18.051Z,52346.21
2022-11-25T07:49:50.795Z,52360.68
2022-11-25T07:52:23.323Z,52357.87
2022-11-25T07:54:55.996Z,52355.86
2022-11-25T07:57:28.502Z,52364.70
2022-11-25T08:00:00.696Z,52353.05
2022-11-25T08:02:34.698Z,52358.27
2022-11-25T08:05:07.799Z,52358.27
2022-11-25T08:07:40.204Z,52353.05
2022-11-25T08:10:11.602Z,52362.29
2022-11-25T08:12:44.237Z,52353.85
2022-11-25T08:15:16.559Z,52357.87
2022-11-25T08:17:52.807Z,52340.99
2022-11-25T08:20:25.314Z,52343.80
2022-11-25T08:22:58.586Z,52366.30
2022-11-25T08:25:32.362Z,52371.54
2022-11-25T08:28:04.431Z,52354.66
2022-11-25T08:30:36.415Z,52354.66
2022-11-25T08:33:07.951Z,52363.49
2022-11-25T08:35:39.922Z,52359.07
2022-11-25T08:38:19.045Z,52354.65
2022-11-25T08:40:50.652Z,52355.46
2022-11-25T08:43:27.914Z,52359.07
2022-11-25T08:46:01.278Z,52368.32
2022-11-25T08:48:33.284Z,52367.92
2022-11-25T08:51:04.840Z,52359.07
2022-11-25T08:53:36.779Z,52361.89
2022-11-25T08:56:08.493Z,52359.07
2022-11-25T08:58:40.619Z,52369.52
2022-11-25T09:01:12.487Z,52378.77
2022-11-25T09:03:46.624Z,52360.69
2022-11-25T09:06:20.579Z,52363.89
2022-11-25T09:08:52.542Z,52360.68
2022-11-25T09:11:22.369Z,52373.14
2022-11-25T09:13:54.196Z,52375.95
2022-11-25T09:16:26.586Z,52376.36
2022-11-25T09:19:00.245Z,52355.86
2022-11-25T09:21:31.677Z,52356.66
2022-11-25T09:24:03.259Z,52349.83
2022-11-25T09:26:36.916Z,52379.57
2022-11-25T09:29:08.653Z,52356.66
2022-11-25T09:31:40.142Z,52354.25
2022-11-25T09:34:10.190Z,52371.53
2022-11-25T09:36:41.642Z,52361.89
2022-11-25T09:39:13.565Z,52375.96
2022-11-25T09:42:06.329Z,52372.74
2022-11-25T09:45:01.825Z,52354.66
2022-11-25T09:47:35.722Z,52365.91
2022-11-25T09:50:13.641Z,52357.07
2022-11-25T09:52:49.887Z,52365.10
2022-11-25T09:55:24.456Z,52357.07
2022-11-25T09:58:01.790Z,52375.55
2022-11-25T10:00:39.181Z,52361.49
2022-11-25T10:03:15.064Z,52379.57
2022-11-25T10:05:48.673Z,52365.91
2022-11-25T10:08:22.557Z,52385.20
2022-11-25T10:10:57.106Z,52369.93
2022-11-25T10:13:30.979Z,52378.37
2022-11-25T10:16:03.101Z,52369.93
2022-11-25T10:18:36.127Z,52366.71
2022-11-25T10:21:08.120Z,52357.46
2022-11-25T10:23:39.736Z,52356.66
2022-11-25T10:26:13.168Z,52360.68
2022-11-25T10:28:47.871Z,52364.70
2022-11-25T10:31:20.445Z,52367.92
2022-11-25T10:33:53.267Z,52369.52
2022-11-25T10:36:25.715Z,52350.23
2022-11-25T10:38:59.003Z,52361.49
2022-11-25T10:41:32.815Z,52373.54
2022-11-25T10:44:05.176Z,52360.68
2022-11-25T10:47:11.631Z,52371.54
2022-11-25T10:49:32.858Z,52362.29
2022-11-25T10:52:08.046Z,52359.88
2022-11-25T10:54:39.553Z,52361.89
2022-11-25T10:57:21.332Z,52348.63
2022-11-25T10:59:59.533Z,52356.66
2022-11-25T11:02:31.700Z,52353.05
2022-11-25T11:05:05.283Z,52359.07
2022-11-25T11:07:38.461Z,52357.47
2022-11-25T11:10:24.316Z,52354.25
2022-11-25T11:12:58.963Z,52357.87
2022-11-25T11:15:32.148Z,52347.02
2022-11-25T11:18:15.425Z,52360.28
2022-11-25T11:20:50.494Z,52356.26
2022-11-25T11:23:22.484Z,52363.90
2022-11-25T11:26:02.990Z,52370.73
2022-11-25T11:28:41.717Z,52357.87
2022-11-25T11:31:19.335Z,52338.18
2022-11-25T11:34:00.089Z,52346.21
2022-11-25T11:36:50.814Z,52353.45
2022-11-25T11:39:37.999Z,52365.10
2022-11-25T11:42:12.593Z,52367.91
2022-11-25T11:44:52.620Z,52358.27
2022-11-25T11:47:27.000Z,52364.30
2022-11-25T11:50:06.109Z,52381.18
2022-11-25T11:52:44.658Z,52366.71
2022-11-25T11:55:25.952Z,52354.65
2022-11-25T11:58:00.286Z,52371.13
2022-11-25T12:00:33.473Z,52350.23
2022-11-25T12:03:07.165Z,52365.91
2022-11-25T12:05:39.210Z,52363.50
2022-11-25T12:08:15.319Z,52356.66
2022-11-25T12:10:51.635Z,52352.24
2022-11-25T12:13:29.068Z,52381.58
2022-11-25T12:16:02.189Z,52362.69
2022-11-25T12:18:50.415Z,52372.74
2022-11-25T12:21:29.695Z,52371.93
2022-11-25T12:24:04.552Z,52360.68
2022-11-25T12:26:40.069Z,52355.86
2022-11-25T12:29:14.255Z,52369.12
2022-11-25T12:31:48.102Z,52375.55
2022-11-25T12:34:21.831Z,52371.54
2022-11-25T12:36:53.216Z,52371.94
2022-11-25T12:39:27.470Z,52359.48
2022-11-25T12:42:00.515Z,52347.82
2022-11-25T12:44:33.154Z,52354.65
2022-11-25T12:47:04.815Z,52363.09
2022-11-25T12:49:40.798Z,52351.44
2022-11-25T12:52:47.921Z,52368.32
2022-11-25T12:55:24.236Z,52369.52
2022-11-25T12:58:31.792Z,52379.57
2022-11-25T13:01:41.615Z,52373.95
2022-11-25T13:04:45.711Z,52361.89
2022-11-25T13:07:25.119Z,52362.70
2022-11-25T13:10:35.336Z,52372.74
2022-11-25T13:13:26.347Z,52366.71
2022-11-25T13:15:58.929Z,52377.16
2022-11-25T13:18:33.612Z,52363.90
2022-11-25T13:21:11.015Z,52373.95
2022-11-25T13:23:53.571Z,52381.18
2022-11-25T13:27:02.171Z,52366.30
2022-11-25T13:30:04.366Z,52386.40
2022-11-25T13:32:37.488Z,52385.20
2022-11-25T13:35:32.661Z,52377.96
2022-11-25T13:38:04.685Z,52387.61
2022-11-25T13:40:41.918Z,52382.38
2022-11-25T13:43:24.822Z,52391.23
2022-11-25T13:45:56.591Z,52380.77
2022-11-25T13:48:27.408Z,52370.73
2022-11-25T13:51:18.882Z,52383.99
2022-11-25T13:53:55.381Z,52372.34
2022-11-25T13:56:30.538Z,52371.13
2022-11-25T13:59:32.319Z,52367.92
2022-11-25T14:02:36.770Z,52368.72
2022-11-25T14:05:24.590Z,52369.12
2022-11-25T14:08:08.212Z,52377.16
2022-11-25T14:10:46.408Z,52384.39
2022-11-25T14:13:28.916Z,52372.34
2022-11-25T14:16:09.876Z,52378.36
2022-11-25T14:21:57.004Z,52371.13
2022-11-25T14:24:34.810Z,52364.70
2022-11-25T14:27:06.325Z,52386.00
2022-11-25T14:29:41.943Z,52388.41
2022-11-25T14:32:14.494Z,52357.87
2022-11-25T14:34:46.869Z,52383.19
2022-11-25T14:37:21.525Z,52383.99
2022-11-25T14:39:56.384Z,52392.03
2022-11-25T14:42:34.026Z,52382.79
2022-11-25T14:45:20.896Z,52376.76
2022-11-25T14:47:52.387Z,52373.95
2022-11-25T14:50:39.982Z,52368.32
2022-11-25T14:53:12.106Z,52383.19
2022-11-25T14:55:41.913Z,52375.15
2022-11-25T14:58:16.221Z,52369.52
2022-11-25T15:00:55.227Z,52373.95
2022-11-25T15:03:27.134Z,52369.53
2022-11-25T15:05:59.741Z,52355.05
2022-11-25T15:08:37.988Z,52360.68
2022-11-25T15:11:10.634Z,52381.18
2022-11-25T15:13:43.288Z,52371.53
2022-11-25T15:16:16.377Z,52387.61
2022-11-25T15:18:50.841Z,52374.34
2022-11-25T15:21:23.540Z,52377.56
2022-11-25T15:23:55.010Z,52375.96
2022-11-25T15:26:27.436Z,52386.40
2022-11-25T15:28:59.823Z,52381.18
2022-11-25T15:31:33.153Z,52374.75
2022-11-25T15:34:06.491Z,52389.21
2022-11-25T15:36:38.009Z,52371.54
2022-11-25T15:39:25.826Z,52377.16
2022-11-25T15:41:58.034Z,52377.96
2022-11-25T15:44:32.287Z,52377.16
2022-11-25T15:47:06.493Z,52381.18
2022-11-25T15:49:38.146Z,52368.32
2022-11-25T15:52:14.244Z,52370.32
2022-11-25T15:54:46.033Z,52377.96
2022-11-25T15:57:18.155Z,52378.37
2022-11-25T16:00:03.753Z,52372.34
2022-11-25T16:02:52.761Z,52375.55
2022-11-25T16:05:35.495Z,52371.93
2022-11-25T16:08:29.269Z,52378.36
2022-11-25T16:11:01.755Z,52375.55
2022-11-25T16:13:37.509Z,52360.68
2022-11-25T16:16:20.357Z,52361.89
2022-11-25T16:19:11.870Z,52363.50
2022-11-25T16:21:54.942Z,52368.32
2022-11-25T16:24:38.066Z,52386.00
2022-11-25T16:27:16.703Z,52364.30
2022-11-25T16:29:56.369Z,52359.07
2022-11-25T16:32:28.968Z,52375.15
2022-11-25T16:35:07.632Z,52362.70
2022-11-25T16:37:40.946Z,52383.99
2022-11-25T16:40:16.979Z,52363.90
2022-11-25T16:42:50.340Z,52367.92
2022-11-25T16:45:23.063Z,52357.06
2022-11-25T16:47:54.348Z,52367.11
2022-11-25T16:50:25.901Z,52371.54
2022-11-25T16:52:57.252Z,52357.87
2022-11-25T16:55:28.850Z,52366.71
2022-11-25T16:58:00.312Z,52379.17
2022-11-25T17:00:32.190Z,52361.09
2022-11-25T17:03:01.898Z,52361.49
2022-11-25T17:05:34.049Z,52366.71
2022-11-25T17:08:05.688Z,52389.62
2022-11-25T17:10:35.551Z,52361.48
2022-11-25T17:13:07.281Z,52370.73
2022-11-25T17:15:37.841Z,52368.72
2022-11-25T17:18:11.911Z,52370.73
2022-11-25T17:20:43.574Z,52386.80
2022-11-25T17:23:17.123Z,52379.97
2022-11-25T17:25:50.500Z,52373.54
2022-11-25T17:28:22.471Z,52380.38
2022-11-25T17:30:55.568Z,52368.72
2022-11-25T17:33:27.450Z,52382.38
2022-11-25T17:35:57.496Z,52371.13
2022-11-25T17:38:29.404Z,52366.31
2022-11-25T17:41:00.868Z,52377.56
2022-11-25T17:43:34.599Z,52367.91
2022-11-25T17:46:06.846Z,52370.33
2022-11-25T17:48:36.822Z,52369.52
2022-11-25T17:51:12.620Z,52366.71
2022-11-25T17:53:45.410Z,52352.64
2022-11-25T17:56:22.366Z,52395.64
2022-11-25T17:58:57.815Z,52379.97
2022-11-25T18:01:29.405Z,52361.89
2022-11-25T18:03:59.801Z,52373.95
2022-11-25T18:06:31.594Z,52370.33
2022-11-25T18:09:03.335Z,52363.50
2022-11-25T18:11:33.526Z,52367.11
2022-11-25T18:14:05.261Z,52365.91
2022-11-25T18:16:35.726Z,52367.91
2022-11-25T18:19:07.426Z,52361.09
2022-11-25T18:21:39.045Z,52356.26
2022-11-25T18:24:09.112Z,52366.30
2022-11-25T18:26:43.842Z,52370.73
2022-11-25T18:29:17.970Z,52359.48
2022-11-25T18:31:50.267Z,52381.18
2022-11-25T18:34:22.368Z,52371.13
2022-11-25T18:36:54.366Z,52359.48
2022-11-25T18:39:26.400Z,52358.67
2022-11-25T18:42:00.174Z,52359.07
2022-11-25T18:44:31.976Z,52360.68
2022-11-25T18:47:01.868Z,52364.70
2022-11-25T18:49:33.659Z,52369.93
2022-11-25T18:52:06.247Z,52360.28
2022-11-25T18:54:39.409Z,52361.49
2022-11-25T18:57:12.581Z,52373.54
2022-11-25T18:59:44.388Z,52373.14
2022-11-25T19:02:18.444Z,52367.11
2022-11-25T19:04:50.169Z,52379.97
2022-11-25T19:07:22.293Z,52366.31
2022-11-25T19:09:53.904Z,52373.14
2022-11-25T19:12:25.483Z,52387.21
2022-11-25T19:14:57.698Z,52364.30
2022-11-25T19:17:29.832Z,52385.20
2022-11-25T19:20:01.336Z,52371.53
2022-11-25T19:22:33.101Z,52377.56
2022-11-25T19:25:03.072Z,52360.68
2022-11-25T19:27:34.853Z,52364.30
2022-11-25T19:30:05.026Z,52356.26
2022-11-25T19:32:36.867Z,52375.15
2022-11-25T19:35:07.081Z,52373.95
2022-11-25T19:37:39.383Z,52367.92
2022-11-25T19:40:17.261Z,52377.96
2022-11-25T19:42:49.442Z,52380.77
2022-11-25T19:45:21.493Z,52383.19
2022-11-25T19:47:53.312Z,52369.93
2022-11-25T19:50:25.944Z,52369.93
2022-11-25T19:52:57.477Z,52363.89
2022-11-25T19:55:30.218Z,52363.09
2022-11-25T19:58:01.639Z,52381.58
2022-11-25T20:00:33.006Z,52379.17
2022-11-25T20:03:04.456Z,52378.37
2022-11-25T20:05:36.728Z,52363.50
2022-11-25T20:08:11.013Z,52359.88
2022-11-25T20:10:42.392Z,52388.41
2022-11-25T20:13:14.081Z,52353.45
2022-11-25T20:15:45.475Z,52374.75
2022-11-25T20:18:18.819Z,52367.52
2022-11-25T20:20:51.671Z,52383.99
2022-11-25T20:23:25.546Z,52377.56
2022-11-25T20:25:56.852Z,52361.49
2022-11-25T20:28:30.391Z,52354.25
2022-11-25T20:31:01.884Z,52383.99
2022-11-25T20:33:33.416Z,52371.53
2022-11-25T20:36:06.176Z,52390.43
2022-11-25T20:38:37.578Z,52379.98
2022-11-25T20:41:09.209Z,52373.54
2022-11-25T20:43:41.709Z,52369.52
2022-11-25T20:46:17.594Z,52373.54
2022-11-25T20:48:49.158Z,52385.60
2022-11-25T20:51:22.025Z,52371.93
2022-11-25T20:53:54.815Z,52380.77
2022-11-25T20:56:27.213Z,52375.95
2022-11-25T20:58:58.641Z,52384.39
2022-11-25T21:01:29.995Z,52386.00
2022-11-25T21:04:01.408Z,52371.94
2022-11-25T21:06:36.591Z,52387.61
2022-11-25T21:09:16.749Z,52394.04
2022-11-25T21:11:48.416Z,52375.96
2022-11-25T21:14:20.702Z,52379.16
2022-11-25T21:16:52.110Z,52376.76
2022-11-25T21:19:23.511Z,52383.99
2022-11-25T21:21:54.977Z,52368.32
2022-11-25T21:24:31.206Z,52377.96
2022-11-25T21:27:03.936Z,52388.01
2022-11-25T21:29:35.394Z,52386.80
2022-11-25T21:32:07.368Z,52380.38
2022-11-25T21:34:38.961Z,52387.21
2022-11-25T21:37:11.743Z,52373.95
2022-11-25T21:39:43.385Z,52380.37
2022-11-25T21:42:16.425Z,52386.40
2022-11-25T21:44:47.782Z,52379.17
2022-11-25T21:47:20.217Z,52382.38
2022-11-25T21:49:51.529Z,52388.82
2022-11-25T21:52:22.962Z,52367.91
2022-11-25T21:54:54.512Z,52382.38
2022-11-25T21:57:29.324Z,52372.34
2022-11-25T22:00:00.798Z,52386.40
2022-11-25T22:02:33.149Z,52388.01
2022-11-25T22:05:07.148Z,52377.96
2022-11-25T22:07:38.730Z,52391.23
2022-11-25T22:10:11.817Z,52377.16
2022-11-25T22:12:44.485Z,52390.82
2022-11-25T22:15:19.491Z,52371.53
2022-11-25T22:17:51.043Z,52384.39
2022-11-25T22:20:27.963Z,52386.80
2022-11-25T22:22:59.350Z,52386.40
2022-11-25T22:25:31.599Z,52383.59
2022-11-25T22:28:03.002Z,52377.96
2022-11-25T22:30:34.574Z,52371.94
2022-11-25T22:33:06.271Z,52374.75
2022-11-25T22:35:37.775Z,52388.41
2022-11-25T22:38:16.509Z,52381.18
2022-11-25T22:40:49.440Z,52378.77
2022-11-25T22:43:22.669Z,52386.00
2022-11-25T22:45:54.042Z,52379.17
2022-11-25T22:48:28.284Z,52392.43
2022-11-25T22:50:59.700Z,52396.45
2022-11-25T22:53:31.329Z,52385.60
2022-11-25T22:56:02.966Z,52385.20
2022-11-25T22:58:34.358Z,52388.81
2022-11-25T23:01:05.910Z,52397.25
2022-11-25T23:03:37.446Z,52377.96
2022-11-25T23:06:11.927Z,52378.36
2022-11-25T23:08:43.312Z,52389.22
2022-11-25T23:11:18.929Z,52368.72
2022-11-25T23:13:50.474Z,52390.02
2022-11-25T23:16:21.987Z,52404.89
2022-11-25T23:18:53.392Z,52391.63
2022-11-25T23:21:28.105Z,52397.66
2022-11-25T23:23:59.537Z,52413.33
2022-11-25T23:26:34.996Z,52398.46
2022-11-25T23:29:23.365Z,52402.48
2022-11-25T23:31:54.779Z,52395.65
2022-11-25T23:34:26.263Z,52409.71
2022-11-25T23:36:57.610Z,52398.86
2022-11-25T23:39:29.343Z,52381.58
2022-11-25T23:41:59.017Z,52383.99
2022-11-25T23:44:31.893Z,52388.41
2022-11-25T23:47:04.402Z,52404.09
2022-11-25T23:49:37.203Z,52392.84
2022-11-25T23:52:08.840Z,52407.30
2022-11-25T23:54:41.220Z,52406.09
2022-11-25T23:57:16.510Z,52406.49
2022-11-25T23:59:47.916Z,52418.15
